sensor_id;sensor_type;location;lat;lon;timestamp;pressure;altitude;pressure_sealevel;temperature;humidity
78892;BME280;68368;51.728;5.248;2023-11-21T00:01:09;101090.83;;;6.16;100.00
78892;BME280;68368;51.728;5.248;2023-11-21T00:03:14;101095.21;;;6.13;100.00
78892;BME280;68368;51.728;5.248;2023-11-21T00:05:20;101103.99;;;6.11;100.00
78892;BME280;68368;51.728;5.248;2023-11-21T00:07:25;101102.02;;;6.08;100.00
78892;BME280;68368;51.728;5.248;2023-11-21T00:09:30;101101.80;;;6.04;100.00
78892;BME280;68368;51.728;5.248;2023-11-21T00:11:35;101105.64;;;6.00;100.00
78892;BME280;68368;51.728;5.248;2023-11-21T00:13:40;101104.16;;;5.97;100.00
78892;BME280;68368;51.728;5.248;2023-11-21T00:15:44;101102.55;;;5.95;100.00
78892;BME280;68368;51.728;5.248;2023-11-21T00:17:50;101103.02;;;5.92;100.00
78892;BME280;68368;51.728;5.248;2023-11-21T00:19:55;101104.21;;;5.88;100.00
78892;BME280;68368;51.728;5.248;2023-11-21T00:22:00;101104.35;;;5.85;100.00
78892;BME280;68368;51.728;5.248;2023-11-21T00:24:06;101107.13;;;5.82;100.00
78892;BME280;68368;51.728;5.248;2023-11-21T00:26:12;101105.13;;;5.78;100.00
78892;BME280;68368;51.728;5.248;2023-11-21T00:28:17;101102.44;;;5.75;100.00
78892;BME280;68368;51.728;5.248;2023-11-21T00:30:23;101105.05;;;5.72;100.00
78892;BME280;68368;51.728;5.248;2023-11-21T00:32:28;101109.40;;;5.69;100.00
78892;BME280;68368;51.728;5.248;2023-11-21T00:34:33;101110.77;;;5.65;100.00
78892;BME280;68368;51.728;5.248;2023-11-21T00:36:38;101114.05;;;5.63;100.00
78892;BME280;68368;51.728;5.248;2023-11-21T00:38:45;101109.09;;;5.59;100.00
78892;BME280;68368;51.728;5.248;2023-11-21T00:40:50;101110.27;;;5.56;100.00
78892;BME280;68368;51.728;5.248;2023-11-21T00:42:55;101108.29;;;5.53;100.00
78892;BME280;68368;51.728;5.248;2023-11-21T00:45:00;101107.18;;;5.50;100.00
78892;BME280;68368;51.728;5.248;2023-11-21T00:47:05;101109.25;;;5.46;100.00
78892;BME280;68368;51.728;5.248;2023-11-21T00:49:10;101113.77;;;5.42;100.00
78892;BME280;68368;51.728;5.248;2023-11-21T00:51:14;101118.83;;;5.40;100.00
78892;BME280;68368;51.728;5.248;2023-11-21T00:53:19;101116.52;;;5.38;100.00
78892;BME280;68368;51.728;5.248;2023-11-21T00:55:24;101121.10;;;5.38;100.00
78892;BME280;68368;51.728;5.248;2023-11-21T00:57:29;101125.33;;;5.38;100.00
78892;BME280;68368;51.728;5.248;2023-11-21T00:59:35;101125.48;;;5.37;100.00
78892;BME280;68368;51.728;5.248;2023-11-21T01:01:39;101131.11;;;5.38;100.00
78892;BME280;68368;51.728;5.248;2023-11-21T01:03:44;101128.46;;;5.37;100.00
78892;BME280;68368;51.728;5.248;2023-11-21T01:05:50;101135.69;;;5.38;100.00
78892;BME280;68368;51.728;5.248;2023-11-21T01:07:56;101131.81;;;5.37;100.00
78892;BME280;68368;51.728;5.248;2023-11-21T01:10:01;101137.07;;;5.35;100.00
78892;BME280;68368;51.728;5.248;2023-11-21T01:12:08;101144.96;;;5.34;100.00
78892;BME280;68368;51.728;5.248;2023-11-21T01:14:13;101142.30;;;5.33;100.00
78892;BME280;68368;51.728;5.248;2023-11-21T01:16:18;101143.16;;;5.31;100.00
78892;BME280;68368;51.728;5.248;2023-11-21T01:18:23;101148.07;;;5.30;100.00
78892;BME280;68368;51.728;5.248;2023-11-21T01:20:29;101150.50;;;5.29;100.00
78892;BME280;68368;51.728;5.248;2023-11-21T01:22:34;101148.91;;;5.27;100.00
78892;BME280;68368;51.728;5.248;2023-11-21T01:24:38;101152.41;;;5.26;100.00
78892;BME280;68368;51.728;5.248;2023-11-21T01:26:43;101150.10;;;5.25;100.00
78892;BME280;68368;51.728;5.248;2023-11-21T01:28:49;101152.55;;;5.24;100.00
78892;BME280;68368;51.728;5.248;2023-11-21T01:30:55;101159.03;;;5.22;100.00
78892;BME280;68368;51.728;5.248;2023-11-21T01:32:59;101157.95;;;5.21;100.00
78892;BME280;68368;51.728;5.248;2023-11-21T01:35:08;101156.70;;;5.20;100.00
78892;BME280;68368;51.728;5.248;2023-11-21T01:37:13;101156.84;;;5.17;100.00
78892;BME280;68368;51.728;5.248;2023-11-21T01:39:18;101156.98;;;5.15;100.00
78892;BME280;68368;51.728;5.248;2023-11-21T01:41:23;101156.92;;;5.12;100.00
78892;BME280;68368;51.728;5.248;2023-11-21T01:43:28;101156.17;;;5.09;100.00
78892;BME280;68368;51.728;5.248;2023-11-21T01:45:34;101160.71;;;5.07;100.00
78892;BME280;68368;51.728;5.248;2023-11-21T01:47:39;101169.27;;;5.04;100.00
78892;BME280;68368;51.728;5.248;2023-11-21T01:49:46;101175.89;;;5.00;100.00
78892;BME280;68368;51.728;5.248;2023-11-21T01:51:52;101174.95;;;4.97;100.00
78892;BME280;68368;51.728;5.248;2023-11-21T01:53:57;101179.81;;;4.93;100.00
78892;BME280;68368;51.728;5.248;2023-11-21T01:56:04;101175.18;;;4.90;100.00
78892;BME280;68368;51.728;5.248;2023-11-21T01:58:10;101180.06;;;4.88;100.00
78892;BME280;68368;51.728;5.248;2023-11-21T02:00:16;101178.45;;;4.87;100.00
78892;BME280;68368;51.728;5.248;2023-11-21T02:02:21;101181.95;;;4.85;100.00
78892;BME280;68368;51.728;5.248;2023-11-21T02:04:26;101181.59;;;4.85;100.00
78892;BME280;68368;51.728;5.248;2023-11-21T02:06:30;101183.00;;;4.86;100.00
78892;BME280;68368;51.728;5.248;2023-11-21T02:08:35;101186.73;;;4.87;100.00
78892;BME280;68368;51.728;5.248;2023-11-21T02:10:40;101186.39;;;4.87;100.00
78892;BME280;68368;51.728;5.248;2023-11-21T02:12:46;101184.99;;;4.88;100.00
78892;BME280;68368;51.728;5.248;2023-11-21T02:14:51;101189.27;;;4.91;100.00
78892;BME280;68368;51.728;5.248;2023-11-21T02:16:56;101194.80;;;4.96;100.00
78892;BME280;68368;51.728;5.248;2023-11-21T02:19:02;101193.48;;;5.00;100.00
78892;BME280;68368;51.728;5.248;2023-11-21T02:21:09;101197.63;;;5.06;100.00
78892;BME280;68368;51.728;5.248;2023-11-21T02:23:14;101201.44;;;5.11;100.00
78892;BME280;68368;51.728;5.248;2023-11-21T02:25:19;101205.05;;;5.17;100.00
78892;BME280;68368;51.728;5.248;2023-11-21T02:27:24;101208.69;;;5.23;100.00
78892;BME280;68368;51.728;5.248;2023-11-21T02:29:30;101209.31;;;5.30;100.00
78892;BME280;68368;51.728;5.248;2023-11-21T02:31:35;101210.83;;;5.36;100.00
78892;BME280;68368;51.728;5.248;2023-11-21T02:33:41;101211.96;;;5.41;100.00
78892;BME280;68368;51.728;5.248;2023-11-21T02:35:46;101212.95;;;5.46;100.00
78892;BME280;68368;51.728;5.248;2023-11-21T02:37:52;101208.60;;;5.50;100.00
78892;BME280;68368;51.728;5.248;2023-11-21T02:39:56;101204.61;;;5.53;100.00
78892;BME280;68368;51.728;5.248;2023-11-21T02:42:01;101204.48;;;5.57;100.00
78892;BME280;68368;51.728;5.248;2023-11-21T02:44:09;101204.00;;;5.60;100.00
78892;BME280;68368;51.728;5.248;2023-11-21T02:46:17;101207.77;;;5.63;100.00
78892;BME280;68368;51.728;5.248;2023-11-21T02:48:22;101209.75;;;5.66;100.00
78892;BME280;68368;51.728;5.248;2023-11-21T02:50:27;101207.88;;;5.70;100.00
78892;BME280;68368;51.728;5.248;2023-11-21T02:52:32;101212.17;;;5.75;100.00
78892;BME280;68368;51.728;5.248;2023-11-21T02:54:37;101210.29;;;5.78;100.00
78892;BME280;68368;51.728;5.248;2023-11-21T02:56:43;101210.66;;;5.80;100.00
78892;BME280;68368;51.728;5.248;2023-11-21T02:58:48;101208.61;;;5.84;100.00
78892;BME280;68368;51.728;5.248;2023-11-21T03:00:53;101207.23;;;5.86;100.00
78892;BME280;68368;51.728;5.248;2023-11-21T03:02:58;101210.98;;;5.88;100.00
78892;BME280;68368;51.728;5.248;2023-11-21T03:05:03;101209.77;;;5.90;100.00
78892;BME280;68368;51.728;5.248;2023-11-21T03:07:09;101205.06;;;5.93;100.00
78892;BME280;68368;51.728;5.248;2023-11-21T03:09:13;101208.64;;;5.95;100.00
78892;BME280;68368;51.728;5.248;2023-11-21T03:11:18;101210.23;;;5.96;100.00
78892;BME280;68368;51.728;5.248;2023-11-21T03:13:23;101206.89;;;5.96;100.00
78892;BME280;68368;51.728;5.248;2023-11-21T03:15:28;101211.85;;;5.98;100.00
78892;BME280;68368;51.728;5.248;2023-11-21T03:17:33;101212.95;;;6.00;100.00
78892;BME280;68368;51.728;5.248;2023-11-21T03:19:38;101215.27;;;6.03;100.00
78892;BME280;68368;51.728;5.248;2023-11-21T03:21:44;101214.44;;;6.06;100.00
78892;BME280;68368;51.728;5.248;2023-11-21T03:23:49;101210.95;;;6.08;100.00
78892;BME280;68368;51.728;5.248;2023-11-21T03:25:54;101211.00;;;6.11;100.00
78892;BME280;68368;51.728;5.248;2023-11-21T03:27:59;101207.85;;;6.13;100.00
78892;BME280;68368;51.728;5.248;2023-11-21T03:30:04;101213.34;;;6.15;100.00
78892;BME280;68368;51.728;5.248;2023-11-21T03:32:10;101215.29;;;6.17;100.00
78892;BME280;68368;51.728;5.248;2023-11-21T03:34:27;101214.77;;;6.18;100.00
78892;BME280;68368;51.728;5.248;2023-11-21T03:36:32;101217.64;;;6.21;100.00
78892;BME280;68368;51.728;5.248;2023-11-21T03:38:38;101218.55;;;6.23;100.00
78892;BME280;68368;51.728;5.248;2023-11-21T03:40:43;101227.55;;;6.25;100.00
78892;BME280;68368;51.728;5.248;2023-11-21T03:42:49;101229.85;;;6.24;100.00
78892;BME280;68368;51.728;5.248;2023-11-21T03:44:56;101228.62;;;6.24;100.00
78892;BME280;68368;51.728;5.248;2023-11-21T03:47:00;101231.62;;;6.25;100.00
78892;BME280;68368;51.728;5.248;2023-11-21T03:49:05;101229.48;;;6.25;100.00
78892;BME280;68368;51.728;5.248;2023-11-21T03:51:10;101230.91;;;6.25;100.00
78892;BME280;68368;51.728;5.248;2023-11-21T03:53:15;101227.20;;;6.25;100.00
78892;BME280;68368;51.728;5.248;2023-11-21T03:55:21;101226.16;;;6.25;100.00
78892;BME280;68368;51.728;5.248;2023-11-21T03:57:27;101231.98;;;6.26;100.00
78892;BME280;68368;51.728;5.248;2023-11-21T03:59:32;101233.23;;;6.27;100.00
78892;BME280;68368;51.728;5.248;2023-11-21T04:01:38;101232.04;;;6.29;100.00
78892;BME280;68368;51.728;5.248;2023-11-21T04:03:42;101235.77;;;6.31;100.00
78892;BME280;68368;51.728;5.248;2023-11-21T04:05:48;101232.98;;;6.34;100.00
78892;BME280;68368;51.728;5.248;2023-11-21T04:07:53;101234.61;;;6.37;100.00
78892;BME280;68368;51.728;5.248;2023-11-21T04:09:58;101235.86;;;6.38;100.00
78892;BME280;68368;51.728;5.248;2023-11-21T04:12:04;101239.77;;;6.40;100.00
78892;BME280;68368;51.728;5.248;2023-11-21T04:14:10;101241.90;;;6.42;100.00
78892;BME280;68368;51.728;5.248;2023-11-21T04:16:15;101247.38;;;6.43;100.00
78892;BME280;68368;51.728;5.248;2023-11-21T04:18:20;101254.30;;;6.46;100.00
78892;BME280;68368;51.728;5.248;2023-11-21T04:20:25;101258.92;;;6.48;100.00
78892;BME280;68368;51.728;5.248;2023-11-21T04:22:30;101266.02;;;6.51;100.00
78892;BME280;68368;51.728;5.248;2023-11-21T04:24:35;101269.41;;;6.55;100.00
78892;BME280;68368;51.728;5.248;2023-11-21T04:26:40;101272.63;;;6.57;100.00
78892;BME280;68368;51.728;5.248;2023-11-21T04:28:45;101275.30;;;6.60;100.00
78892;BME280;68368;51.728;5.248;2023-11-21T04:30:50;101280.80;;;6.62;100.00
78892;BME280;68368;51.728;5.248;2023-11-21T04:32:57;101283.11;;;6.64;100.00
78892;BME280;68368;51.728;5.248;2023-11-21T04:35:03;101287.73;;;6.66;100.00
78892;BME280;68368;51.728;5.248;2023-11-21T04:37:08;101290.05;;;6.68;100.00
78892;BME280;68368;51.728;5.248;2023-11-21T04:39:14;101291.84;;;6.71;100.00
78892;BME280;68368;51.728;5.248;2023-11-21T04:41:18;101294.36;;;6.74;100.00
78892;BME280;68368;51.728;5.248;2023-11-21T04:43:23;101291.22;;;6.77;100.00
78892;BME280;68368;51.728;5.248;2023-11-21T04:45:29;101296.19;;;6.79;100.00
78892;BME280;68368;51.728;5.248;2023-11-21T04:47:34;101296.90;;;6.80;100.00
78892;BME280;68368;51.728;5.248;2023-11-21T04:49:39;101299.38;;;6.80;100.00
78892;BME280;68368;51.728;5.248;2023-11-21T04:51:44;101302.75;;;6.82;100.00
78892;BME280;68368;51.728;5.248;2023-11-21T04:53:49;101311.05;;;6.83;100.00
78892;BME280;68368;51.728;5.248;2023-11-21T04:55:54;101312.11;;;6.83;100.00
78892;BME280;68368;51.728;5.248;2023-11-21T04:57:58;101316.36;;;6.84;100.00
78892;BME280;68368;51.728;5.248;2023-11-21T05:00:05;101317.44;;;6.84;100.00
78892;BME280;68368;51.728;5.248;2023-11-21T05:02:10;101314.97;;;6.85;100.00
78892;BME280;68368;51.728;5.248;2023-11-21T05:04:15;101309.69;;;6.86;100.00
78892;BME280;68368;51.728;5.248;2023-11-21T05:06:20;101300.50;;;6.86;100.00
78892;BME280;68368;51.728;5.248;2023-11-21T05:08:27;101305.98;;;6.87;100.00
78892;BME280;68368;51.728;5.248;2023-11-21T05:10:33;101309.69;;;6.86;100.00
78892;BME280;68368;51.728;5.248;2023-11-21T05:12:39;101310.73;;;6.86;100.00
78892;BME280;68368;51.728;5.248;2023-11-21T05:14:44;101315.17;;;6.87;100.00
78892;BME280;68368;51.728;5.248;2023-11-21T05:16:49;101320.48;;;6.88;100.00
78892;BME280;68368;51.728;5.248;2023-11-21T05:18:54;101316.45;;;6.90;100.00
78892;BME280;68368;51.728;5.248;2023-11-21T05:21:00;101325.98;;;6.92;100.00
78892;BME280;68368;51.728;5.248;2023-11-21T05:23:04;101327.27;;;6.94;100.00
78892;BME280;68368;51.728;5.248;2023-11-21T05:25:13;101324.97;;;6.94;100.00
78892;BME280;68368;51.728;5.248;2023-11-21T05:27:18;101332.73;;;6.93;100.00
78892;BME280;68368;51.728;5.248;2023-11-21T05:29:25;101335.92;;;6.94;100.00
78892;BME280;68368;51.728;5.248;2023-11-21T05:31:30;101338.74;;;6.95;100.00
78892;BME280;68368;51.728;5.248;2023-11-21T05:33:34;101337.86;;;6.95;100.00
78892;BME280;68368;51.728;5.248;2023-11-21T05:35:39;101336.47;;;6.95;100.00
78892;BME280;68368;51.728;5.248;2023-11-21T05:37:44;101336.11;;;6.96;100.00
78892;BME280;68368;51.728;5.248;2023-11-21T05:39:50;101338.41;;;6.97;100.00
78892;BME280;68368;51.728;5.248;2023-11-21T05:41:55;101340.00;;;6.97;100.00
78892;BME280;68368;51.728;5.248;2023-11-21T05:44:02;101341.80;;;6.99;100.00
78892;BME280;68368;51.728;5.248;2023-11-21T05:46:07;101347.63;;;7.00;100.00
78892;BME280;68368;51.728;5.248;2023-11-21T05:48:12;101353.31;;;7.02;100.00
78892;BME280;68368;51.728;5.248;2023-11-21T05:50:18;101357.94;;;7.05;100.00
78892;BME280;68368;51.728;5.248;2023-11-21T05:52:23;101359.73;;;7.08;100.00
78892;BME280;68368;51.728;5.248;2023-11-21T05:54:28;101367.70;;;7.10;100.00
78892;BME280;68368;51.728;5.248;2023-11-21T05:56:33;101367.73;;;7.12;100.00
78892;BME280;68368;51.728;5.248;2023-11-21T05:58:38;101371.64;;;7.14;100.00
78892;BME280;68368;51.728;5.248;2023-11-21T06:00:43;101370.23;;;7.15;100.00
78892;BME280;68368;51.728;5.248;2023-11-21T06:02:48;101379.80;;;7.17;100.00
78892;BME280;68368;51.728;5.248;2023-11-21T06:04:53;101384.42;;;7.19;100.00
78892;BME280;68368;51.728;5.248;2023-11-21T06:06:58;101383.93;;;7.22;100.00
78892;BME280;68368;51.728;5.248;2023-11-21T06:09:03;101386.77;;;7.24;100.00
78892;BME280;68368;51.728;5.248;2023-11-21T06:11:09;101391.22;;;7.27;100.00
78892;BME280;68368;51.728;5.248;2023-11-21T06:13:14;101394.80;;;7.29;100.00
78892;BME280;68368;51.728;5.248;2023-11-21T06:15:18;101391.48;;;7.33;100.00
78892;BME280;68368;51.728;5.248;2023-11-21T06:17:24;101395.73;;;7.35;100.00
78892;BME280;68368;51.728;5.248;2023-11-21T06:19:28;101397.52;;;7.37;100.00
78892;BME280;68368;51.728;5.248;2023-11-21T06:21:33;101401.81;;;7.41;100.00
78892;BME280;68368;51.728;5.248;2023-11-21T06:23:38;101400.61;;;7.44;100.00
78892;BME280;68368;51.728;5.248;2023-11-21T06:25:43;101403.12;;;7.47;100.00
78892;BME280;68368;51.728;5.248;2023-11-21T06:27:49;101403.70;;;7.51;100.00
78892;BME280;68368;51.728;5.248;2023-11-21T06:29:54;101402.50;;;7.54;100.00
78892;BME280;68368;51.728;5.248;2023-11-21T06:31:59;101400.74;;;7.55;100.00
78892;BME280;68368;51.728;5.248;2023-11-21T06:34:04;101406.25;;;7.57;100.00
78892;BME280;68368;51.728;5.248;2023-11-21T06:36:11;101407.34;;;7.60;100.00
78892;BME280;68368;51.728;5.248;2023-11-21T06:38:17;101412.48;;;7.63;100.00
78892;BME280;68368;51.728;5.248;2023-11-21T06:40:25;101415.51;;;7.63;100.00
78892;BME280;68368;51.728;5.248;2023-11-21T06:42:30;101409.88;;;7.65;100.00
78892;BME280;68368;51.728;5.248;2023-11-21T06:44:34;101407.59;;;7.66;100.00
78892;BME280;68368;51.728;5.248;2023-11-21T06:46:39;101407.95;;;7.67;100.00
78892;BME280;68368;51.728;5.248;2023-11-21T06:48:45;101404.26;;;7.69;100.00
78892;BME280;68368;51.728;5.248;2023-11-21T06:50:50;101410.10;;;7.70;100.00
78892;BME280;68368;51.728;5.248;2023-11-21T06:52:54;101412.59;;;7.73;100.00
78892;BME280;68368;51.728;5.248;2023-11-21T06:55:02;101412.44;;;7.74;100.00
78892;BME280;68368;51.728;5.248;2023-11-21T06:57:08;101415.64;;;7.76;100.00
78892;BME280;68368;51.728;5.248;2023-11-21T06:59:12;101420.44;;;7.79;100.00
78892;BME280;68368;51.728;5.248;2023-11-21T07:01:17;101421.70;;;7.80;100.00
78892;BME280;68368;51.728;5.248;2023-11-21T07:03:24;101419.23;;;7.82;100.00
78892;BME280;68368;51.728;5.248;2023-11-21T07:05:29;101422.25;;;7.83;100.00
78892;BME280;68368;51.728;5.248;2023-11-21T07:07:34;101430.58;;;7.85;100.00
78892;BME280;68368;51.728;5.248;2023-11-21T07:09:39;101440.86;;;7.87;100.00
78892;BME280;68368;51.728;5.248;2023-11-21T07:11:45;101435.23;;;7.90;100.00
78892;BME280;68368;51.728;5.248;2023-11-21T07:13:50;101441.61;;;7.92;100.00
78892;BME280;68368;51.728;5.248;2023-11-21T07:15:57;101446.06;;;7.95;100.00
78892;BME280;68368;51.728;5.248;2023-11-21T07:18:02;101450.34;;;7.98;100.00
78892;BME280;68368;51.728;5.248;2023-11-21T07:20:09;101459.37;;;8.00;100.00
78892;BME280;68368;51.728;5.248;2023-11-21T07:22:14;101460.64;;;8.03;100.00
78892;BME280;68368;51.728;5.248;2023-11-21T07:24:20;101465.98;;;8.07;100.00
78892;BME280;68368;51.728;5.248;2023-11-21T07:26:26;101466.02;;;8.09;100.00
78892;BME280;68368;51.728;5.248;2023-11-21T07:28:31;101466.75;;;8.12;100.00
78892;BME280;68368;51.728;5.248;2023-11-21T07:30:35;101469.25;;;8.15;100.00
78892;BME280;68368;51.728;5.248;2023-11-21T07:32:40;101474.25;;;8.19;100.00
78892;BME280;68368;51.728;5.248;2023-11-21T07:34:46;101472.67;;;8.22;100.00
78892;BME280;68368;51.728;5.248;2023-11-21T07:36:51;101478.18;;;8.24;100.00
78892;BME280;68368;51.728;5.248;2023-11-21T07:38:56;101481.40;;;8.27;100.00
78892;BME280;68368;51.728;5.248;2023-11-21T07:41:01;101482.84;;;8.31;100.00
78892;BME280;68368;51.728;5.248;2023-11-21T07:43:07;101488.71;;;8.33;100.00
78892;BME280;68368;51.728;5.248;2023-11-21T07:45:13;101485.38;;;8.37;100.00
78892;BME280;68368;51.728;5.248;2023-11-21T07:47:18;101486.50;;;8.40;100.00
78892;BME280;68368;51.728;5.248;2023-11-21T07:49:23;101484.42;;;8.43;100.00
78892;BME280;68368;51.728;5.248;2023-11-21T07:51:28;101488.52;;;8.48;100.00
78892;BME280;68368;51.728;5.248;2023-11-21T07:53:33;101489.63;;;8.52;100.00
78892;BME280;68368;51.728;5.248;2023-11-21T07:55:38;101489.66;;;8.56;100.00
78892;BME280;68368;51.728;5.248;2023-11-21T07:57:43;101494.11;;;8.59;100.00
78892;BME280;68368;51.728;5.248;2023-11-21T07:59:49;101497.14;;;8.62;100.00
78892;BME280;68368;51.728;5.248;2023-11-21T08:01:55;101500.35;;;8.65;100.00
78892;BME280;68368;51.728;5.248;2023-11-21T08:04:00;101503.19;;;8.67;100.00
78892;BME280;68368;51.728;5.248;2023-11-21T08:06:07;101513.14;;;8.71;100.00
78892;BME280;68368;51.728;5.248;2023-11-21T08:08:41;101516.73;;;8.74;100.00
78892;BME280;68368;51.728;5.248;2023-11-21T08:10:45;101522.79;;;8.80;100.00
78892;BME280;68368;51.728;5.248;2023-11-21T08:12:50;101528.48;;;8.86;100.00
78892;BME280;68368;51.728;5.248;2023-11-21T08:14:55;101529.41;;;8.91;100.00
78892;BME280;68368;51.728;5.248;2023-11-21T08:17:00;101531.23;;;8.96;100.00
78892;BME280;68368;51.728;5.248;2023-11-21T08:19:06;101525.95;;;9.00;100.00
78892;BME280;68368;51.728;5.248;2023-11-21T08:21:11;101525.80;;;9.04;100.00
78892;BME280;68368;51.728;5.248;2023-11-21T08:23:17;101524.59;;;9.09;100.00
78892;BME280;68368;51.728;5.248;2023-11-21T08:25:23;101525.34;;;9.14;100.00
78892;BME280;68368;51.728;5.248;2023-11-21T08:27:28;101527.32;;;9.21;100.00
78892;BME280;68368;51.728;5.248;2023-11-21T08:29:33;101526.52;;;9.32;100.00
78892;BME280;68368;51.728;5.248;2023-11-21T08:31:38;101526.23;;;9.45;100.00
78892;BME280;68368;51.728;5.248;2023-11-21T08:33:43;101535.90;;;9.60;100.00
78892;BME280;68368;51.728;5.248;2023-11-21T08:35:48;101538.06;;;9.72;100.00
78892;BME280;68368;51.728;5.248;2023-11-21T08:37:56;101549.81;;;9.81;100.00
78892;BME280;68368;51.728;5.248;2023-11-21T08:40:02;101555.16;;;9.87;100.00
78892;BME280;68368;51.728;5.248;2023-11-21T08:42:08;101558.02;;;9.90;100.00
78892;BME280;68368;51.728;5.248;2023-11-21T08:44:13;101564.05;;;9.91;100.00
78892;BME280;68368;51.728;5.248;2023-11-21T08:46:17;101566.20;;;9.96;100.00
78892;BME280;68368;51.728;5.248;2023-11-21T08:48:23;101569.60;;;10.03;100.00
78892;BME280;68368;51.728;5.248;2023-11-21T08:50:27;101574.23;;;10.09;100.00
78892;BME280;68368;51.728;5.248;2023-11-21T08:52:32;101575.66;;;10.14;100.00
78892;BME280;68368;51.728;5.248;2023-11-21T08:54:37;101573.55;;;10.18;100.00
78892;BME280;68368;51.728;5.248;2023-11-21T08:56:44;101574.46;;;10.24;100.00
78892;BME280;68368;51.728;5.248;2023-11-21T08:58:49;101574.66;;;10.26;100.00
78892;BME280;68368;51.728;5.248;2023-11-21T09:00:54;101572.38;;;10.33;100.00
78892;BME280;68368;51.728;5.248;2023-11-21T09:03:00;101581.11;;;10.41;100.00
78892;BME280;68368;51.728;5.248;2023-11-21T09:05:07;101582.01;;;10.47;100.00
78892;BME280;68368;51.728;5.248;2023-11-21T09:07:12;101584.33;;;10.52;100.00
78892;BME280;68368;51.728;5.248;2023-11-21T09:09:17;101584.70;;;10.55;100.00
78892;BME280;68368;51.728;5.248;2023-11-21T09:11:22;101593.40;;;10.61;100.00
78892;BME280;68368;51.728;5.248;2023-11-21T09:13:26;101592.16;;;10.64;100.00
78892;BME280;68368;51.728;5.248;2023-11-21T09:15:31;101598.02;;;10.67;100.00
78892;BME280;68368;51.728;5.248;2023-11-21T09:17:36;101599.62;;;10.67;100.00
78892;BME280;68368;51.728;5.248;2023-11-21T09:19:41;101597.67;;;10.68;100.00
78892;BME280;68368;51.728;5.248;2023-11-21T09:21:46;101597.14;;;10.69;100.00
78892;BME280;68368;51.728;5.248;2023-11-21T09:23:52;101598.56;;;10.70;100.00
78892;BME280;68368;51.728;5.248;2023-11-21T09:25:57;101595.90;;;10.68;100.00
78892;BME280;68368;51.728;5.248;2023-11-21T09:28:05;101597.85;;;10.63;100.00
78892;BME280;68368;51.728;5.248;2023-11-21T09:30:11;101602.27;;;10.60;100.00
78892;BME280;68368;51.728;5.248;2023-11-21T09:32:17;101606.52;;;10.56;100.00
78892;BME280;68368;51.728;5.248;2023-11-21T09:34:23;101611.30;;;10.53;100.00
78892;BME280;68368;51.728;5.248;2023-11-21T09:36:29;101618.23;;;10.52;100.00
78892;BME280;68368;51.728;5.248;2023-11-21T09:38:34;101625.85;;;10.50;100.00
78892;BME280;68368;51.728;5.248;2023-11-21T09:40:39;101628.68;;;10.46;100.00
78892;BME280;68368;51.728;5.248;2023-11-21T09:42:52;101632.23;;;10.40;100.00
78892;BME280;68368;51.728;5.248;2023-11-21T09:45:05;101633.44;;;10.34;100.00
78892;BME280;68368;51.728;5.248;2023-11-21T09:47:15;101635.56;;;10.30;100.00
78892;BME280;68368;51.728;5.248;2023-11-21T09:49:24;101639.30;;;10.30;100.00
78892;BME280;68368;51.728;5.248;2023-11-21T09:51:31;101641.77;;;10.31;100.00
78892;BME280;68368;51.728;5.248;2023-11-21T09:53:37;101646.57;;;10.33;100.00
78892;BME280;68368;51.728;5.248;2023-11-21T09:55:44;101643.91;;;10.34;100.00
78892;BME280;68368;51.728;5.248;2023-11-21T09:57:51;101641.09;;;10.36;100.00
78892;BME280;68368;51.728;5.248;2023-11-21T10:00:01;101637.19;;;10.40;100.00
78892;BME280;68368;51.728;5.248;2023-11-21T10:02:08;101641.12;;;10.49;100.00
78892;BME280;68368;51.728;5.248;2023-11-21T10:04:13;101650.23;;;10.64;100.00
78892;BME280;68368;51.728;5.248;2023-11-21T10:06:19;101655.77;;;10.88;100.00
78892;BME280;68368;51.728;5.248;2023-11-21T10:08:25;101656.87;;;11.07;100.00
78892;BME280;68368;51.728;5.248;2023-11-21T10:10:32;101662.21;;;11.12;100.00
78892;BME280;68368;51.728;5.248;2023-11-21T10:12:37;101660.61;;;11.08;100.00
78892;BME280;68368;51.728;5.248;2023-11-21T10:14:43;101665.58;;;11.05;100.00
78892;BME280;68368;51.728;5.248;2023-11-21T10:16:52;101671.25;;;11.02;100.00
78892;BME280;68368;51.728;5.248;2023-11-21T10:18:59;101676.23;;;11.06;100.00
78892;BME280;68368;51.728;5.248;2023-11-21T10:21:05;101680.52;;;11.18;100.00
78892;BME280;68368;51.728;5.248;2023-11-21T10:23:11;101679.10;;;11.26;100.00
78892;BME280;68368;51.728;5.248;2023-11-21T10:25:16;101683.73;;;11.36;100.00
78892;BME280;68368;51.728;5.248;2023-11-21T10:27:21;101676.25;;;11.45;100.00
78892;BME280;68368;51.728;5.248;2023-11-21T10:29:28;101683.73;;;11.51;100.00
78892;BME280;68368;51.728;5.248;2023-11-21T10:31:34;101686.58;;;11.53;100.00
78892;BME280;68368;51.728;5.248;2023-11-21T10:33:39;101699.39;;;11.51;100.00
78892;BME280;68368;51.728;5.248;2023-11-21T10:35:47;101700.27;;;11.45;100.00
78892;BME280;68368;51.728;5.248;2023-11-21T10:38:01;101697.23;;;11.39;100.00
78892;BME280;68368;51.728;5.248;2023-11-21T10:40:09;101698.13;;;11.35;100.00
78892;BME280;68368;51.728;5.248;2023-11-21T10:42:14;101698.31;;;11.35;100.00
78892;BME280;68368;51.728;5.248;2023-11-21T10:44:19;101702.40;;;11.35;100.00
78892;BME280;68368;51.728;5.248;2023-11-21T10:46:24;101701.33;;;11.35;100.00
78892;BME280;68368;51.728;5.248;2023-11-21T10:48:29;101697.95;;;11.36;100.00
78892;BME280;68368;51.728;5.248;2023-11-21T10:50:35;101701.14;;;11.36;100.00
78892;BME280;68368;51.728;5.248;2023-11-21T10:52:40;101703.80;;;11.37;100.00
78892;BME280;68368;51.728;5.248;2023-11-21T10:54:45;101706.48;;;11.38;100.00